createdAt,value
2023-10-30T00:01:55.680Z,99582.28
2023-10-30T00:04:22.313Z,99586.47
2023-10-30T00:06:48.940Z,99585.66
2023-10-30T00:09:18.552Z,99584.56
2023-10-30T00:11:48.042Z,99582.69
2023-10-30T00:14:14.561Z,99582.69
2023-10-30T00:16:41.386Z,99580.63
2023-10-30T00:19:07.949Z,99572.75
2023-10-30T00:21:34.566Z,99580.91
2023-10-30T00:24:02.461Z,99587.72
2023-10-30T00:26:30.872Z,99588.75
2023-10-30T00:28:58.696Z,99598.44
2023-10-30T00:31:26.833Z,99604.44
2023-10-30T00:33:54.354Z,99610.41
2023-10-30T00:36:21.112Z,99598.06
2023-10-30T00:38:47.674Z,99599.34
2023-10-30T00:41:15.077Z,99616.31
2023-10-30T00:43:41.720Z,99630.09
2023-10-30T00:46:08.442Z,99620.88
2023-10-30T00:48:35.547Z,99626.78
2023-10-30T00:51:02.515Z,99610.41
2023-10-30T00:53:29.154Z,99607.19
2023-10-30T00:55:55.650Z,99602.91
2023-10-30T00:58:22.264Z,99619.59
2023-10-30T01:00:49.029Z,99630.00
2023-10-30T01:03:16.760Z,99627.06
2023-10-30T01:05:43.615Z,99631.28
2023-10-30T01:08:10.257Z,99620.03
2023-10-30T01:10:37.673Z,99617.09
2023-10-30T01:13:04.428Z,99626.22
2023-10-30T01:15:31.192Z,99623.84
2023-10-30T01:17:58.369Z,99621.47
2023-10-30T01:20:25.073Z,99613.28
2023-10-30T01:22:51.706Z,99600.63
2023-10-30T01:25:18.256Z,99626.63
2023-10-30T01:27:45.114Z,99632.19
2023-10-30T01:30:12.654Z,99635.34
2023-10-30T01:32:39.367Z,99640.59
2023-10-30T01:35:06.176Z,99637.22
2023-10-30T01:37:32.724Z,99627.97
2023-10-30T01:39:59.259Z,99633.84
2023-10-30T01:42:25.835Z,99637.00
2023-10-30T01:44:57.381Z,99643.56
2023-10-30T01:47:25.050Z,99636.53
2023-10-30T01:49:53.461Z,99647.59
2023-10-30T01:52:21.212Z,99646.31
2023-10-30T01:54:48.344Z,99639.44
2023-10-30T01:57:21.758Z,99661.78
2023-10-30T01:59:51.059Z,99655.03
2023-10-30T02:02:24.619Z,99653.72
2023-10-30T02:04:51.504Z,99651.41
2023-10-30T02:07:20.964Z,99654.28
2023-10-30T02:09:48.625Z,99662.69
2023-10-30T02:12:15.459Z,99662.63
2023-10-30T02:14:42.029Z,99666.75
2023-10-30T02:17:08.626Z,99676.22
2023-10-30T02:19:35.389Z,99678.28
2023-10-30T02:22:01.913Z,99671.94
2023-10-30T02:24:28.507Z,99677.66
2023-10-30T02:26:55.272Z,99681.03
2023-10-30T02:29:21.858Z,99672.31
2023-10-30T02:31:48.444Z,99673.56
2023-10-30T02:34:15.326Z,99684.28
2023-10-30T02:36:42.255Z,99684.66
2023-10-30T02:39:09.670Z,99671.03
2023-10-30T02:41:36.403Z,99665.25
2023-10-30T02:44:02.975Z,99673.34
2023-10-30T02:46:29.456Z,99671.84
2023-10-30T02:48:57.171Z,99680.50
2023-10-30T02:51:24.014Z,99687.84
2023-10-30T02:53:50.553Z,99682.53
2023-10-30T02:56:17.077Z,99673.69
2023-10-30T02:58:43.652Z,99694.88
2023-10-30T03:01:10.206Z,99693.75
2023-10-30T03:03:36.986Z,99685.34
2023-10-30T03:06:03.995Z,99681.41
2023-10-30T03:08:30.563Z,99692.00
2023-10-30T03:10:57.066Z,99698.50
2023-10-30T03:13:24.448Z,99713.00
2023-10-30T03:15:50.981Z,99713.56
2023-10-30T03:18:17.582Z,99709.38
2023-10-30T03:20:44.043Z,99714.59
2023-10-30T03:23:10.694Z,99724.19
2023-10-30T03:25:37.263Z,99719.50
2023-10-30T03:28:04.058Z,99722.38
2023-10-30T03:30:30.672Z,99732.75
2023-10-30T03:32:57.343Z,99733.69
2023-10-30T03:35:23.988Z,99731.72
2023-10-30T03:37:50.467Z,99732.31
2023-10-30T03:40:16.960Z,99738.41
2023-10-30T03:42:43.496Z,99743.47
2023-10-30T03:45:10.168Z,99744.63
2023-10-30T03:47:36.761Z,99735.91
2023-10-30T03:50:03.541Z,99731.06
2023-10-30T03:52:30.123Z,99748.13
2023-10-30T03:55:00.418Z,99761.53
2023-10-30T03:57:27.108Z,99756.69
2023-10-30T03:59:53.806Z,99753.41
2023-10-30T04:02:20.396Z,99751.91
2023-10-30T04:04:46.979Z,99749.78
2023-10-30T04:07:13.633Z,99776.09
2023-10-30T04:09:40.421Z,99768.75
2023-10-30T04:12:07.427Z,99767.03
2023-10-30T04:14:33.942Z,99761.44
2023-10-30T04:17:03.971Z,99757.41
2023-10-30T04:19:31.072Z,99760.13
2023-10-30T04:21:57.648Z,99754.81
2023-10-30T04:24:24.165Z,99750.81
2023-10-30T04:26:50.802Z,99760.22
2023-10-30T04:29:18.160Z,99761.59
2023-10-30T04:31:44.713Z,99751.41
2023-10-30T04:34:11.229Z,99758.09
2023-10-30T04:36:37.930Z,99757.50
2023-10-30T04:39:04.695Z,99760.00
2023-10-30T04:41:33.130Z,99760.00
2023-10-30T04:43:59.734Z,99766.25
2023-10-30T04:46:26.362Z,99774.31
2023-10-30T04:48:53.099Z,99765.91
2023-10-30T04:51:19.748Z,99766.72
2023-10-30T04:53:46.366Z,99762.97
2023-10-30T04:56:13.045Z,99767.84
2023-10-30T04:58:39.676Z,99759.34
2023-10-30T05:01:10.044Z,99752.97
2023-10-30T05:03:37.871Z,99753.31
2023-10-30T05:06:05.650Z,99759.81
2023-10-30T05:08:33.217Z,99765.44
2023-10-30T05:11:03.154Z,99757.50
2023-10-30T05:13:30.296Z,99748.34
2023-10-30T05:15:58.274Z,99773.03
2023-10-30T05:18:25.932Z,99783.69
2023-10-30T05:20:52.919Z,99792.53
2023-10-30T05:23:19.639Z,99806.34
2023-10-30T05:25:46.309Z,99819.94
2023-10-30T05:28:13.567Z,99825.41
2023-10-30T05:30:40.568Z,99834.81
2023-10-30T05:33:07.602Z,99831.53
2023-10-30T05:35:34.501Z,99829.72
2023-10-30T05:38:01.173Z,99829.84
2023-10-30T05:40:27.740Z,99822.03
2023-10-30T05:42:54.286Z,99813.41
2023-10-30T05:45:20.977Z,99820.13
2023-10-30T05:47:49.075Z,99816.94
2023-10-30T05:50:15.753Z,99809.94
2023-10-30T05:52:42.267Z,99821.47
2023-10-30T05:55:09.466Z,99804.13
2023-10-30T05:57:37.658Z,99776.59
2023-10-30T06:00:04.828Z,99774.09
2023-10-30T06:02:31.393Z,99777.03
2023-10-30T06:04:57.930Z,99780.66
2023-10-30T06:07:24.436Z,99775.91
2023-10-30T06:09:51.203Z,99790.75
2023-10-30T06:12:17.945Z,99793.28
2023-10-30T06:14:44.701Z,99798.13
2023-10-30T06:17:11.285Z,99799.94
2023-10-30T06:19:37.793Z,99791.56
2023-10-30T06:22:04.393Z,99802.56
2023-10-30T06:24:32.342Z,99802.19
2023-10-30T06:26:59.129Z,99815.69
2023-10-30T06:29:25.627Z,99841.13
2023-10-30T06:31:52.354Z,99844.63
2023-10-30T06:34:18.898Z,99840.75
2023-10-30T06:36:47.446Z,99846.00
2023-10-30T06:39:19.045Z,99848.69
2023-10-30T06:41:45.726Z,99857.09
2023-10-30T06:44:12.364Z,99871.84
2023-10-30T06:46:39.250Z,99838.44
2023-10-30T06:49:05.798Z,99847.41
2023-10-30T06:51:32.460Z,99830.38
2023-10-30T06:53:59.323Z,99819.59
2023-10-30T06:56:26.294Z,99831.09
2023-10-30T06:58:52.860Z,99817.69
2023-10-30T07:01:19.423Z,99823.72
2023-10-30T07:03:46.410Z,99823.38
2023-10-30T07:06:13.123Z,99844.19
2023-10-30T07:08:39.970Z,99852.25
2023-10-30T07:11:06.549Z,99845.31
2023-10-30T07:13:33.106Z,99858.00
2023-10-30T07:15:59.631Z,99867.47
2023-10-30T07:18:26.225Z,99868.78
2023-10-30T07:20:52.907Z,99878.56
2023-10-30T07:23:19.460Z,99881.38
2023-10-30T07:25:45.942Z,99878.19
2023-10-30T07:28:14.581Z,99882.59
2023-10-30T07:30:41.239Z,99876.50
2023-10-30T07:33:09.330Z,99886.94
2023-10-30T07:35:35.963Z,99887.59
2023-10-30T07:38:02.534Z,99907.91
2023-10-30T07:40:29.140Z,99899.66
2023-10-30T07:42:55.974Z,99900.16
2023-10-30T07:45:22.878Z,99893.53
2023-10-30T07:47:49.662Z,99903.16
2023-10-30T07:50:16.340Z,99905.22
2023-10-30T07:52:44.153Z,99894.47
2023-10-30T07:55:11.445Z,99881.25
2023-10-30T07:57:38.088Z,99889.72
2023-10-30T08:00:05.747Z,99874.56
2023-10-30T08:02:32.386Z,99872.72
2023-10-30T08:05:00.460Z,99872.75
2023-10-30T08:07:27.136Z,99876.53
2023-10-30T08:09:53.738Z,99883.91
2023-10-30T08:12:20.412Z,99884.97
2023-10-30T08:14:48.150Z,99878.47
2023-10-30T08:17:14.843Z,99885.88
2023-10-30T08:19:41.459Z,99871.28
2023-10-30T08:22:07.991Z,99883.16
2023-10-30T08:24:34.569Z,99881.63
2023-10-30T08:27:01.114Z,99890.88
2023-10-30T08:29:28.111Z,99902.31
2023-10-30T08:31:54.808Z,99900.06
2023-10-30T08:34:21.884Z,99896.91
2023-10-30T08:36:49.216Z,99898.03
2023-10-30T08:39:16.036Z,99889.91
2023-10-30T08:41:42.641Z,99903.06
2023-10-30T08:44:09.204Z,99904.16
2023-10-30T08:46:35.805Z,99902.09
2023-10-30T08:49:02.402Z,99906.63
2023-10-30T08:51:28.979Z,99906.69
2023-10-30T08:53:55.573Z,99915.69
2023-10-30T08:56:22.134Z,99924.66
2023-10-30T08:58:48.588Z,99921.03
2023-10-30T09:01:15.691Z,99925.00
2023-10-30T09:03:42.819Z,99928.69
2023-10-30T09:06:10.050Z,99937.91
2023-10-30T09:08:36.694Z,99935.81
2023-10-30T09:11:03.313Z,99929.25
2023-10-30T09:13:29.819Z,99939.28
2023-10-30T09:15:56.635Z,99945.06
2023-10-30T09:18:23.217Z,99950.91
2023-10-30T09:20:49.903Z,99943.84
2023-10-30T09:23:16.436Z,99946.50
2023-10-30T09:25:43.134Z,99944.19
2023-10-30T09:28:09.774Z,99949.00
2023-10-30T09:30:36.395Z,99941.94
2023-10-30T09:33:03.200Z,99954.88
2023-10-30T09:35:33.474Z,99962.53
2023-10-30T09:38:00.330Z,99964.13
2023-10-30T09:40:27.659Z,99956.22
2023-10-30T09:42:55.898Z,99950.84
2023-10-30T09:45:25.099Z,99952.59
2023-10-30T09:47:57.173Z,99949.56
2023-10-30T09:50:25.830Z,99953.50
2023-10-30T09:52:53.549Z,99954.78
2023-10-30T09:55:24.719Z,99953.13
2023-10-30T09:57:53.514Z,99945.66
2023-10-30T10:00:21.127Z,99955.13
2023-10-30T10:02:48.653Z,99956.47
2023-10-30T10:05:16.293Z,99955.00
2023-10-30T10:07:42.878Z,99946.84
2023-10-30T10:10:10.017Z,99942.41
2023-10-30T10:12:40.042Z,99947.38
2023-10-30T10:15:08.261Z,99947.59
2023-10-30T10:17:43.348Z,99952.66
2023-10-30T10:20:11.897Z,99950.03
2023-10-30T10:22:39.197Z,99953.22
2023-10-30T10:25:11.728Z,99945.00
2023-10-30T10:27:39.422Z,99931.25
2023-10-30T10:30:07.522Z,99933.13
2023-10-30T10:32:34.447Z,99928.44
2023-10-30T10:35:03.584Z,99936.13
2023-10-30T10:37:30.683Z,99929.09
2023-10-30T10:39:57.335Z,99926.50
2023-10-30T10:42:28.431Z,99922.88
2023-10-30T10:44:56.892Z,99931.06
2023-10-30T10:47:24.312Z,99919.22
2023-10-30T10:49:52.040Z,99913.97
2023-10-30T10:52:22.655Z,99919.78
2023-10-30T10:55:01.036Z,99898.44
2023-10-30T10:57:29.495Z,99877.88
2023-10-30T10:59:59.691Z,99890.78
2023-10-30T11:02:39.571Z,99905.28
2023-10-30T11:05:06.791Z,99891.31
2023-10-30T11:07:58.871Z,99893.16
2023-10-30T11:10:32.313Z,99899.97
2023-10-30T11:13:17.247Z,99894.41
2023-10-30T11:16:17.581Z,99890.59
2023-10-30T11:18:44.281Z,99874.13
2023-10-30T11:21:14.270Z,99879.34
2023-10-30T11:24:00.699Z,99872.28
2023-10-30T11:26:37.148Z,99867.28
2023-10-30T11:29:17.365Z,99876.28
2023-10-30T11:32:02.289Z,99886.34
2023-10-30T11:34:36.279Z,99888.38
2023-10-30T11:37:11.064Z,99887.81
2023-10-30T11:39:42.345Z,99898.31
2023-10-30T11:42:24.309Z,99903.56
2023-10-30T11:44:52.241Z,99908.06
2023-10-30T11:47:25.406Z,99905.19
2023-10-30T11:49:56.772Z,99900.97
2023-10-30T11:52:24.310Z,99908.09
2023-10-30T11:54:51.182Z,99901.00
2023-10-30T11:57:18.643Z,99902.59
2023-10-30T11:59:45.168Z,99898.63
2023-10-30T12:02:11.635Z,99894.13
2023-10-30T12:04:38.330Z,99886.13
2023-10-30T12:07:05.569Z,99881.63
2023-10-30T12:09:32.375Z,99883.50
2023-10-30T12:11:59.090Z,99879.00
2023-10-30T12:14:28.056Z,99880.09
2023-10-30T12:16:54.559Z,99877.47
2023-10-30T12:19:21.938Z,99879.34
2023-10-30T12:21:50.048Z,99869.56
2023-10-30T12:24:17.709Z,99878.53
2023-10-30T12:26:44.561Z,99874.31
2023-10-30T12:29:11.255Z,99871.13
2023-10-30T12:31:37.913Z,99862.91
2023-10-30T12:34:12.631Z,99845.50
2023-10-30T12:36:39.812Z,99852.28
2023-10-30T12:39:14.741Z,99852.84
2023-10-30T12:41:41.341Z,99858.47
2023-10-30T12:44:08.343Z,99852.53
2023-10-30T12:46:35.258Z,99866.50
2023-10-30T12:49:02.265Z,99850.72
2023-10-30T12:51:29.124Z,99870.25
2023-10-30T12:53:55.772Z,99872.63
2023-10-30T12:56:22.303Z,99865.78
2023-10-30T12:58:49.009Z,99866.84
2023-10-30T13:01:15.604Z,99870.06
2023-10-30T13:03:42.218Z,99874.31
2023-10-30T13:06:08.758Z,99872.22
2023-10-30T13:08:35.265Z,99870.66
2023-10-30T13:11:01.910Z,99860.09
2023-10-30T13:13:28.403Z,99859.84
2023-10-30T13:15:55.083Z,99848.03
2023-10-30T13:18:21.640Z,99843.03
2023-10-30T13:20:48.336Z,99839.91
2023-10-30T13:23:14.922Z,99846.50
2023-10-30T13:25:41.669Z,99847.28
2023-10-30T13:28:09.230Z,99838.56
2023-10-30T13:30:35.866Z,99842.56
2023-10-30T13:33:02.482Z,99848.34
2023-10-30T13:35:29.071Z,99845.97
2023-10-30T13:37:55.636Z,99847.03
2023-10-30T13:40:22.241Z,99844.13
2023-10-30T13:42:48.803Z,99835.41
2023-10-30T13:45:15.339Z,99819.06
2023-10-30T13:47:41.859Z,99821.22
2023-10-30T13:50:08.654Z,99821.50
2023-10-30T13:52:36.561Z,99819.13
2023-10-30T13:55:03.204Z,99832.84
2023-10-30T13:57:29.836Z,99825.50
2023-10-30T13:59:56.471Z,99822.59
2023-10-30T14:02:22.993Z,99830.50
2023-10-30T14:04:50.822Z,99835.00
2023-10-30T14:07:20.635Z,99823.16
2023-10-30T14:09:47.743Z,99829.75
2023-10-30T14:12:16.307Z,99824.22
2023-10-30T14:14:42.829Z,99824.50
2023-10-30T14:17:09.459Z,99830.53
2023-10-30T14:19:35.974Z,99828.44
2023-10-30T14:22:02.487Z,99826.84
2023-10-30T14:24:29.093Z,99818.44
2023-10-30T14:26:55.701Z,99818.69
2023-10-30T14:29:22.381Z,99807.34
2023-10-30T14:31:48.923Z,99817.59
2023-10-30T14:34:15.702Z,99816.28
2023-10-30T14:36:42.262Z,99813.66
2023-10-30T14:39:09.522Z,99813.88
2023-10-30T14:41:36.954Z,99815.69
2023-10-30T14:44:03.614Z,99821.97
2023-10-30T14:46:30.240Z,99819.56
2023-10-30T14:48:58.128Z,99813.75
2023-10-30T14:51:24.757Z,99816.56
2023-10-30T14:53:51.254Z,99811.75
2023-10-30T14:56:18.682Z,99828.03
2023-10-30T14:58:45.298Z,99817.47
2023-10-30T15:01:11.945Z,99833.19
2023-10-30T15:03:38.617Z,99831.81
2023-10-30T15:06:05.436Z,99838.00
2023-10-30T15:08:31.965Z,99833.19
2023-10-30T15:10:58.535Z,99835.47
2023-10-30T15:13:25.049Z,99836.19
2023-10-30T15:15:51.808Z,99832.94
2023-10-30T15:18:18.486Z,99832.03
2023-10-30T15:20:45.139Z,99827.16
2023-10-30T15:23:11.903Z,99837.63
2023-10-30T15:25:38.511Z,99829.88
2023-10-30T15:28:05.198Z,99847.91
2023-10-30T15:30:31.871Z,99841.50
2023-10-30T15:32:58.485Z,99834.03
2023-10-30T15:35:25.101Z,99838.84
2023-10-30T15:37:51.992Z,99840.25
2023-10-30T15:40:18.634Z,99831.41
2023-10-30T15:42:46.231Z,99824.97
2023-10-30T15:45:12.943Z,99826.69
2023-10-30T15:47:39.633Z,99815.84
2023-10-30T15:50:07.133Z,99818.13
2023-10-30T15:57:37.209Z,99801.31
2023-10-30T16:00:04.076Z,99789.72
2023-10-30T16:02:30.716Z,99804.66
2023-10-30T16:07:27.456Z,99807.09
2023-10-30T16:09:54.325Z,99807.91
2023-10-30T16:12:37.325Z,99794.81
2023-10-30T16:15:07.364Z,99788.25
2023-10-30T16:17:34.156Z,99801.09
2023-10-30T16:22:30.308Z,99798.56
2023-10-30T16:24:56.774Z,99801.72
2023-10-30T16:27:23.325Z,99804.09
2023-10-30T16:29:50.005Z,99804.66
2023-10-30T16:32:17.790Z,99806.78
2023-10-30T16:34:44.406Z,99801.31
2023-10-30T16:37:11.001Z,99813.13
2023-10-30T16:39:37.586Z,99810.75
2023-10-30T16:42:04.465Z,99807.09
2023-10-30T16:44:30.987Z,99806.13
2023-10-30T16:46:57.570Z,99791.72
2023-10-30T16:49:24.148Z,99803.59
2023-10-30T16:51:50.765Z,99803.34
2023-10-30T16:54:17.417Z,99789.16
2023-10-30T16:56:44.076Z,99806.25
2023-10-30T16:59:10.573Z,99809.44
2023-10-30T17:01:37.608Z,99796.09
2023-10-30T17:04:04.420Z,99796.91
2023-10-30T17:06:31.052Z,99792.78
2023-10-30T17:08:57.648Z,99788.88
2023-10-30T17:11:24.426Z,99791.47
2023-10-30T17:13:51.519Z,99791.00
2023-10-30T17:16:18.116Z,99795.47
2023-10-30T17:18:44.835Z,99783.13
2023-10-30T17:21:11.427Z,99784.50
2023-10-30T17:23:38.494Z,99779.75
2023-10-30T17:26:05.971Z,99771.88
2023-10-30T17:28:33.605Z,99764.59
2023-10-30T17:31:00.220Z,99764.88
2023-10-30T17:33:26.828Z,99760.19
2023-10-30T17:35:53.447Z,99751.06
2023-10-30T17:38:20.024Z,99747.13
2023-10-30T17:40:46.723Z,99741.91
2023-10-30T17:43:13.300Z,99744.28
2023-10-30T17:45:39.915Z,99742.69
2023-10-30T17:48:06.799Z,99735.38
2023-10-30T17:50:33.466Z,99729.34
2023-10-30T17:53:00.340Z,99723.09
2023-10-30T17:55:26.859Z,99730.16
2023-10-30T17:57:53.521Z,99721.78
2023-10-30T18:00:20.240Z,99731.72
2023-10-30T18:02:46.838Z,99726.72
2023-10-30T18:05:13.524Z,99734.59
2023-10-30T18:07:40.091Z,99730.91
2023-10-30T18:10:06.951Z,99731.91
2023-10-30T18:12:33.479Z,99723.50
2023-10-30T18:15:00.153Z,99714.88
2023-10-30T18:17:27.761Z,99713.81
2023-10-30T18:19:54.428Z,99707.78
2023-10-30T18:22:21.055Z,99693.38
2023-10-30T18:24:48.113Z,99702.25
2023-10-30T18:27:14.727Z,99692.81
2023-10-30T18:29:43.811Z,99694.63
2023-10-30T18:32:10.345Z,99687.28
2023-10-30T18:34:36.946Z,99689.09
2023-10-30T18:37:05.317Z,99684.34
2023-10-30T18:39:31.812Z,99684.06
2023-10-30T18:41:58.486Z,99688.78
2023-10-30T18:44:25.002Z,99682.78
2023-10-30T18:46:52.815Z,99678.31
2023-10-30T18:49:19.427Z,99677.00
2023-10-30T18:51:46.278Z,99675.63
2023-10-30T18:54:12.892Z,99669.63
2023-10-30T18:56:39.468Z,99664.41
2023-10-30T18:59:05.939Z,99644.16
2023-10-30T19:01:32.514Z,99647.59
2023-10-30T19:03:59.090Z,99643.63
2023-10-30T19:06:25.902Z,99655.94
2023-10-30T19:08:54.849Z,99650.63
2023-10-30T19:11:21.959Z,99655.06
2023-10-30T19:13:48.789Z,99653.72
2023-10-30T19:16:15.805Z,99655.88
2023-10-30T19:18:42.589Z,99649.03
2023-10-30T19:21:09.157Z,99647.47
2023-10-30T19:23:35.684Z,99640.34
2023-10-30T19:26:02.731Z,99629.09
2023-10-30T19:28:29.338Z,99629.09
2023-10-30T19:30:58.427Z,99621.00
2023-10-30T19:33:27.355Z,99610.75
2023-10-30T19:35:53.880Z,99606.78
2023-10-30T19:38:20.466Z,99601.81
2023-10-30T19:40:47.051Z,99594.22
2023-10-30T19:43:13.746Z,99579.53
2023-10-30T19:45:40.817Z,99575.84
2023-10-30T19:48:07.615Z,99576.63
2023-10-30T19:50:34.271Z,99558.78
2023-10-30T19:53:00.857Z,99554.34
2023-10-30T19:55:27.858Z,99541.75
2023-10-30T19:57:54.434Z,99529.94
2023-10-30T20:00:21.290Z,99541.50
2023-10-30T20:02:47.942Z,99518.44
2023-10-30T20:05:15.019Z,99520.03
2023-10-30T20:07:42.627Z,99522.13
2023-10-30T20:10:22.113Z,99521.13
2023-10-30T20:12:57.025Z,99510.66
2023-10-30T20:15:24.476Z,99505.66
2023-10-30T20:17:51.167Z,99512.25
2023-10-30T20:20:18.339Z,99516.47
2023-10-30T20:22:45.081Z,99506.25
2023-10-30T20:25:12.368Z,99491.56
2023-10-30T20:27:38.997Z,99492.41
2023-10-30T20:30:06.068Z,99486.38
2023-10-30T20:32:32.744Z,99482.69
2023-10-30T20:34:59.297Z,99474.06
2023-10-30T20:37:25.890Z,99470.59
2023-10-30T20:39:52.850Z,99474.06
2023-10-30T20:42:20.262Z,99470.88
2023-10-30T20:44:46.754Z,99455.97
2023-10-30T20:47:13.381Z,99459.38
2023-10-30T20:49:43.173Z,99461.50
2023-10-30T20:52:09.772Z,99459.66
2023-10-30T20:54:39.058Z,99452.91
2023-10-30T20:57:05.589Z,99456.81
2023-10-30T20:59:32.233Z,99442.91
2023-10-30T21:01:58.949Z,99436.06
2023-10-30T21:04:25.740Z,99421.06
2023-10-30T21:06:52.546Z,99420.81
2023-10-30T21:09:19.309Z,99420.28
2023-10-30T21:11:47.448Z,99407.44
2023-10-30T21:14:14.068Z,99392.72
2023-10-30T21:16:40.859Z,99389.00
2023-10-30T21:19:07.528Z,99384.81
2023-10-30T21:21:34.225Z,99388.50
2023-10-30T21:24:01.131Z,99379.09
2023-10-30T21:26:27.709Z,99370.16
2023-10-30T21:28:54.410Z,99372.97
2023-10-30T21:31:21.103Z,99368.75
2023-10-30T21:33:47.688Z,99367.16
2023-10-30T21:36:14.340Z,99357.19
2023-10-30T21:38:40.797Z,99365.03
2023-10-30T21:41:07.336Z,99376.22
2023-10-30T21:43:33.887Z,99374.13
2023-10-30T21:46:00.586Z,99380.16
2023-10-30T21:48:27.204Z,99374.63
2023-10-30T21:50:53.752Z,99371.75
2023-10-30T21:53:20.311Z,99372.25
2023-10-30T21:55:47.265Z,99375.38
2023-10-30T21:58:13.855Z,99367.44
2023-10-30T22:00:40.879Z,99363.00
2023-10-30T22:03:07.615Z,99352.31
2023-10-30T22:05:34.258Z,99334.50
2023-10-30T22:08:00.822Z,99341.16
2023-10-30T22:10:28.085Z,99325.50
2023-10-30T22:12:55.085Z,99310.88
2023-10-30T22:15:23.326Z,99311.19
2023-10-30T22:17:49.993Z,99314.34
2023-10-30T22:20:16.608Z,99311.72
2023-10-30T22:22:43.260Z,99296.00
2023-10-30T22:25:11.371Z,99292.38
2023-10-30T22:27:39.966Z,99290.53
2023-10-30T22:30:09.871Z,99292.63
2023-10-30T22:32:38.614Z,99286.34
2023-10-30T22:35:05.495Z,99270.66
2023-10-30T22:37:31.987Z,99270.16
2023-10-30T22:39:58.616Z,99269.63
2023-10-30T22:42:25.142Z,99267.00
2023-10-30T22:44:51.664Z,99263.63
2023-10-30T22:47:18.182Z,99249.75
2023-10-30T22:49:44.783Z,99242.69
2023-10-30T22:52:11.359Z,99239.28
2023-10-30T22:54:37.892Z,99238.72
2023-10-30T22:57:04.412Z,99229.56
2023-10-30T22:59:30.996Z,99222.75
2023-10-30T23:01:57.563Z,99222.72
2023-10-30T23:04:24.070Z,99210.69
2023-10-30T23:06:50.606Z,99218.25
2023-10-30T23:09:17.152Z,99227.13
2023-10-30T23:11:43.723Z,99214.81
2023-10-30T23:14:10.359Z,99205.13
2023-10-30T23:16:36.928Z,99188.91
2023-10-30T23:19:03.539Z,99186.28
2023-10-30T23:21:30.098Z,99179.47
2023-10-30T23:23:56.637Z,99171.41
2023-10-30T23:26:23.112Z,99167.19
2023-10-30T23:28:49.773Z,99156.47
2023-10-30T23:31:16.358Z,99156.75
2023-10-30T23:33:42.831Z,99152.34
2023-10-30T23:36:10.481Z,99148.66
2023-10-30T23:38:37.090Z,99145.03
2023-10-30T23:41:03.985Z,99137.66
2023-10-30T23:43:30.708Z,99130.63
2023-10-30T23:45:57.294Z,99123.03
2023-10-30T23:48:23.825Z,99119.59
2023-10-30T23:50:50.443Z,99117.78
2023-10-30T23:53:16.967Z,99107.81
2023-10-30T23:55:43.562Z,99112.78
2023-10-30T23:58:10.089Z,99106.78
